Main page
METAR-TAF:

METAR-TAF

Airports :

Hof, Germany

Hof–Plauen Airport

latitude: 50-19N, longitude: 011-53E, elevation: 567 m

Current weather observation

The report was made 4 hours and 53 minutes ago, at 17:50 UTC
Wind 6 kt from the West, varying between Southwest and West/Northwest
Temperature 9°C
Humidity 49%
Pressure 1017 hPa
Visibility 10 km or more
no clouds below 1500 m and no cumulonimbus

METAR: EDQM 261750Z 26006KT 230V300 CAVOK 09/M01 Q1017

Time: 00:43 (22:43 UTC)

Forecast

The report was made 5 hours and 43 minutes ago, at 17:00 UTC
Forecast valid from 26 at 18 UTC to 27 at 03 UTC
Wind 9 kt from the West/Southwest
Visibility 10 km or more
no clouds below 1500 m and no cumulonimbus
Becoming
from 26 at 18 UTC to 26 at 20 UTC
Wind 4 kt from the Southwest

TAF: EDQM 261700Z 2618/2703 25009KT CAVOK BECMG 2618/2620 22004KT

Weather observations and forecasts of more than 4000 airports (METAR and TAF reports).

The available stations are represented by yellow and red dots on the map.

Hover mouse over dot to see the name of the station.

Then click to see weather observations and forecasts.

To change the map : click on the green buttons with a black cross to zoom in, on the green button with a dash to zoom out, or on the green arrows for adjacent maps.


METAR-TAF: